sensor_id;sensor_type;location;lat;lon;timestamp;temperature;humidity
13472;DHT22;6808;49.444;11.034;2023-01-29T00:00:30;-0.80;96.00
13472;DHT22;6808;49.444;11.034;2023-01-29T00:02:56;-0.80;96.00
13472;DHT22;6808;49.444;11.034;2023-01-29T00:05:22;-0.90;96.20
13472;DHT22;6808;49.444;11.034;2023-01-29T00:07:47;-0.90;96.20
13472;DHT22;6808;49.444;11.034;2023-01-29T00:10:13;-0.90;96.40
13472;DHT22;6808;49.444;11.034;2023-01-29T00:12:39;-0.80;96.10
13472;DHT22;6808;49.444;11.034;2023-01-29T00:15:05;-0.90;95.90
13472;DHT22;6808;49.444;11.034;2023-01-29T00:17:31;-0.80;96.00
13472;DHT22;6808;49.444;11.034;2023-01-29T00:19:56;-0.80;95.90
13472;DHT22;6808;49.444;11.034;2023-01-29T00:22:22;-0.90;96.00
13472;DHT22;6808;49.444;11.034;2023-01-29T00:24:47;-1.00;96.10
13472;DHT22;6808;49.444;11.034;2023-01-29T00:27:13;-0.90;96.30
13472;DHT22;6808;49.444;11.034;2023-01-29T00:29:38;-0.90;96.30
13472;DHT22;6808;49.444;11.034;2023-01-29T00:32:04;-1.00;96.00
13472;DHT22;6808;49.444;11.034;2023-01-29T00:34:30;-1.00;96.10
13472;DHT22;6808;49.444;11.034;2023-01-29T00:36:55;-1.00;96.10
13472;DHT22;6808;49.444;11.034;2023-01-29T00:39:31;-0.90;96.40
13472;DHT22;6808;49.444;11.034;2023-01-29T00:42:05;-0.90;96.50
13472;DHT22;6808;49.444;11.034;2023-01-29T00:44:49;-1.00;96.00
13472;DHT22;6808;49.444;11.034;2023-01-29T00:47:24;-0.90;96.30
13472;DHT22;6808;49.444;11.034;2023-01-29T00:49:55;-0.90;96.30
13472;DHT22;6808;49.444;11.034;2023-01-29T00:52:22;-0.90;96.30
13472;DHT22;6808;49.444;11.034;2023-01-29T00:54:56;-1.00;96.00
13472;DHT22;6808;49.444;11.034;2023-01-29T00:57:23;-1.00;96.00
13472;DHT22;6808;49.444;11.034;2023-01-29T00:59:49;-1.00;96.30
13472;DHT22;6808;49.444;11.034;2023-01-29T01:02:15;-1.00;96.30
13472;DHT22;6808;49.444;11.034;2023-01-29T01:05:00;-1.00;96.20
13472;DHT22;6808;49.444;11.034;2023-01-29T01:07:28;-1.10;96.00
13472;DHT22;6808;49.444;11.034;2023-01-29T01:09:53;-1.10;96.00
13472;DHT22;6808;49.444;11.034;2023-01-29T01:12:37;-1.10;96.20
13472;DHT22;6808;49.444;11.034;2023-01-29T01:15:04;-1.10;96.60
13472;DHT22;6808;49.444;11.034;2023-01-29T01:17:29;-1.10;96.10
13472;DHT22;6808;49.444;11.034;2023-01-29T01:19:55;-1.10;96.10
13472;DHT22;6808;49.444;11.034;2023-01-29T01:22:21;-1.00;96.30
13472;DHT22;6808;49.444;11.034;2023-01-29T01:24:46;-1.10;96.00
13472;DHT22;6808;49.444;11.034;2023-01-29T01:27:12;-1.10;96.10
13472;DHT22;6808;49.444;11.034;2023-01-29T01:29:38;-1.10;95.90
13472;DHT22;6808;49.444;11.034;2023-01-29T01:32:04;-1.10;96.00
13472;DHT22;6808;49.444;11.034;2023-01-29T01:34:30;-1.10;95.90
13472;DHT22;6808;49.444;11.034;2023-01-29T01:36:56;-1.10;96.10
13472;DHT22;6808;49.444;11.034;2023-01-29T01:39:22;-1.10;95.70
13472;DHT22;6808;49.444;11.034;2023-01-29T01:41:48;-1.20;96.00
13472;DHT22;6808;49.444;11.034;2023-01-29T01:44:52;-1.20;96.10
13472;DHT22;6808;49.444;11.034;2023-01-29T01:47:41;-1.10;96.50
13472;DHT22;6808;49.444;11.034;2023-01-29T01:50:20;-1.10;96.20
13472;DHT22;6808;49.444;11.034;2023-01-29T01:52:50;-1.00;96.10
13472;DHT22;6808;49.444;11.034;2023-01-29T01:55:19;-1.00;96.00
13472;DHT22;6808;49.444;11.034;2023-01-29T01:57:49;-1.00;95.90
13472;DHT22;6808;49.444;11.034;2023-01-29T02:00:17;-1.20;95.80
13472;DHT22;6808;49.444;11.034;2023-01-29T02:02:45;-1.30;95.80
13472;DHT22;6808;49.444;11.034;2023-01-29T02:05:31;-1.20;96.00
13472;DHT22;6808;49.444;11.034;2023-01-29T02:08:31;-1.30;95.90
13472;DHT22;6808;49.444;11.034;2023-01-29T02:11:18;-1.30;95.90
13472;DHT22;6808;49.444;11.034;2023-01-29T02:13:44;-1.40;95.70
13472;DHT22;6808;49.444;11.034;2023-01-29T02:16:10;-1.40;95.70
13472;DHT22;6808;49.444;11.034;2023-01-29T02:18:35;-1.40;95.80
13472;DHT22;6808;49.444;11.034;2023-01-29T02:30:06;-1.40;96.10
13472;DHT22;6808;49.444;11.034;2023-01-29T02:32:46;-1.40;96.10
13472;DHT22;6808;49.444;11.034;2023-01-29T02:40:49;-1.60;95.60
13472;DHT22;6808;49.444;11.034;2023-01-29T02:44:02;-1.60;95.80
13472;DHT22;6808;49.444;11.034;2023-01-29T02:46:34;-1.60;96.00
13472;DHT22;6808;49.444;11.034;2023-01-29T02:49:09;-1.50;96.20
13472;DHT22;6808;49.444;11.034;2023-01-29T02:54:18;-1.50;96.20
13472;DHT22;6808;49.444;11.034;2023-01-29T02:56:52;-1.50;96.10
13472;DHT22;6808;49.444;11.034;2023-01-29T02:59:24;-1.40;96.10
13472;DHT22;6808;49.444;11.034;2023-01-29T03:01:55;-1.30;96.00
13472;DHT22;6808;49.444;11.034;2023-01-29T03:04:28;-1.40;95.70
13472;DHT22;6808;49.444;11.034;2023-01-29T03:07:06;-1.40;95.80
13472;DHT22;6808;49.444;11.034;2023-01-29T03:09:43;-1.40;95.70
13472;DHT22;6808;49.444;11.034;2023-01-29T03:12:18;-1.50;95.70
13472;DHT22;6808;49.444;11.034;2023-01-29T03:15:02;-1.50;95.90
13472;DHT22;6808;49.444;11.034;2023-01-29T03:17:55;-1.50;95.90
13472;DHT22;6808;49.444;11.034;2023-01-29T03:20:29;-1.50;96.10
13472;DHT22;6808;49.444;11.034;2023-01-29T03:23:00;-1.50;96.10
13472;DHT22;6808;49.444;11.034;2023-01-29T03:25:27;-1.50;96.10
13472;DHT22;6808;49.444;11.034;2023-01-29T03:28:16;-1.50;96.10
13472;DHT22;6808;49.444;11.034;2023-01-29T03:31:06;-1.60;96.20
13472;DHT22;6808;49.444;11.034;2023-01-29T03:33:58;-1.60;96.00
13472;DHT22;6808;49.444;11.034;2023-01-29T03:36:36;-1.60;96.20
13472;DHT22;6808;49.444;11.034;2023-01-29T03:39:08;-1.60;95.70
13472;DHT22;6808;49.444;11.034;2023-01-29T03:41:47;-1.70;95.60
13472;DHT22;6808;49.444;11.034;2023-01-29T03:47:16;-1.80;95.60
13472;DHT22;6808;49.444;11.034;2023-01-29T03:49:59;-1.80;95.60
13472;DHT22;6808;49.444;11.034;2023-01-29T03:52:45;-1.80;95.60
13472;DHT22;6808;49.444;11.034;2023-01-29T03:55:27;-1.80;95.60
13472;DHT22;6808;49.444;11.034;2023-01-29T03:58:08;-1.70;95.80
13472;DHT22;6808;49.444;11.034;2023-01-29T04:00:45;-1.70;96.30
13472;DHT22;6808;49.444;11.034;2023-01-29T04:03:32;-1.60;96.30
13472;DHT22;6808;49.444;11.034;2023-01-29T04:06:01;-1.50;96.50
13472;DHT22;6808;49.444;11.034;2023-01-29T04:08:39;-1.40;96.40
13472;DHT22;6808;49.444;11.034;2023-01-29T04:11:11;-1.40;96.10
13472;DHT22;6808;49.444;11.034;2023-01-29T04:13:39;-1.50;95.80
13472;DHT22;6808;49.444;11.034;2023-01-29T04:16:06;-1.60;95.60
13472;DHT22;6808;49.444;11.034;2023-01-29T04:18:33;-1.60;95.70
13472;DHT22;6808;49.444;11.034;2023-01-29T04:21:00;-1.70;95.80
13472;DHT22;6808;49.444;11.034;2023-01-29T04:23:26;-1.70;95.90
13472;DHT22;6808;49.444;11.034;2023-01-29T04:31:14;-1.70;95.70
13472;DHT22;6808;49.444;11.034;2023-01-29T04:33:45;-1.80;95.70
13472;DHT22;6808;49.444;11.034;2023-01-29T04:39:06;-1.80;95.60
13472;DHT22;6808;49.444;11.034;2023-01-29T04:41:48;-1.90;95.60
13472;DHT22;6808;49.444;11.034;2023-01-29T04:47:11;-1.90;96.10
13472;DHT22;6808;49.444;11.034;2023-01-29T04:50:02;-1.80;95.90
13472;DHT22;6808;49.444;11.034;2023-01-29T04:52:51;-1.80;95.90
13472;DHT22;6808;49.444;11.034;2023-01-29T04:55:39;-1.80;96.20
13472;DHT22;6808;49.444;11.034;2023-01-29T04:58:27;-1.80;96.20
13472;DHT22;6808;49.444;11.034;2023-01-29T05:00:54;-1.80;96.30
13472;DHT22;6808;49.444;11.034;2023-01-29T05:03:23;-1.70;96.30
13472;DHT22;6808;49.444;11.034;2023-01-29T05:05:50;-1.60;96.10
13472;DHT22;6808;49.444;11.034;2023-01-29T05:08:19;-1.60;95.90
13472;DHT22;6808;49.444;11.034;2023-01-29T05:10:47;-1.60;95.90
13472;DHT22;6808;49.444;11.034;2023-01-29T05:13:14;-1.70;95.90
13472;DHT22;6808;49.444;11.034;2023-01-29T05:18:11;-1.50;96.10
13472;DHT22;6808;49.444;11.034;2023-01-29T05:20:38;-1.60;96.00
13472;DHT22;6808;49.444;11.034;2023-01-29T05:23:08;-1.60;96.00
13472;DHT22;6808;49.444;11.034;2023-01-29T05:25:35;-1.60;96.20
13472;DHT22;6808;49.444;11.034;2023-01-29T05:28:00;-1.60;96.10
13472;DHT22;6808;49.444;11.034;2023-01-29T05:30:45;-1.60;96.10
13472;DHT22;6808;49.444;11.034;2023-01-29T05:33:14;-1.60;96.00
13472;DHT22;6808;49.444;11.034;2023-01-29T05:35:40;-1.60;95.90
13472;DHT22;6808;49.444;11.034;2023-01-29T05:38:06;-1.50;95.60
13472;DHT22;6808;49.444;11.034;2023-01-29T05:40:31;-1.60;95.60
13472;DHT22;6808;49.444;11.034;2023-01-29T05:42:57;-1.60;95.70
13472;DHT22;6808;49.444;11.034;2023-01-29T05:45:23;-1.60;95.70
13472;DHT22;6808;49.444;11.034;2023-01-29T05:47:48;-1.60;95.60
13472;DHT22;6808;49.444;11.034;2023-01-29T05:50:14;-1.70;95.60
13472;DHT22;6808;49.444;11.034;2023-01-29T05:52:40;-1.40;95.80
13472;DHT22;6808;49.444;11.034;2023-01-29T05:55:07;-1.70;95.30
13472;DHT22;6808;49.444;11.034;2023-01-29T05:57:33;-1.80;95.50
13472;DHT22;6808;49.444;11.034;2023-01-29T05:59:58;-1.70;95.70
13472;DHT22;6808;49.444;11.034;2023-01-29T06:02:24;-1.70;95.90
13472;DHT22;6808;49.444;11.034;2023-01-29T06:04:50;-1.60;96.10
13472;DHT22;6808;49.444;11.034;2023-01-29T06:07:17;-1.50;96.10
13472;DHT22;6808;49.444;11.034;2023-01-29T06:09:43;-1.50;95.60
13472;DHT22;6808;49.444;11.034;2023-01-29T06:12:08;-1.50;95.50
13472;DHT22;6808;49.444;11.034;2023-01-29T06:14:34;-1.50;95.40
13472;DHT22;6808;49.444;11.034;2023-01-29T06:16:59;-1.50;95.00
13472;DHT22;6808;49.444;11.034;2023-01-29T06:19:25;-1.50;94.90
13472;DHT22;6808;49.444;11.034;2023-01-29T06:21:50;-1.40;95.20
13472;DHT22;6808;49.444;11.034;2023-01-29T06:24:16;-1.50;94.90
13472;DHT22;6808;49.444;11.034;2023-01-29T06:26:41;-1.50;95.10
13472;DHT22;6808;49.444;11.034;2023-01-29T06:29:07;-1.20;95.40
13472;DHT22;6808;49.444;11.034;2023-01-29T06:31:32;-1.50;95.30
13472;DHT22;6808;49.444;11.034;2023-01-29T06:33:58;-1.50;95.20
13472;DHT22;6808;49.444;11.034;2023-01-29T06:36:23;-1.60;95.20
13472;DHT22;6808;49.444;11.034;2023-01-29T06:38:49;-1.60;95.40
13472;DHT22;6808;49.444;11.034;2023-01-29T06:41:18;-1.60;95.70
13472;DHT22;6808;49.444;11.034;2023-01-29T06:43:47;-1.60;95.50
13472;DHT22;6808;49.444;11.034;2023-01-29T06:46:12;-1.60;95.30
13472;DHT22;6808;49.444;11.034;2023-01-29T06:48:38;-1.60;95.20
13472;DHT22;6808;49.444;11.034;2023-01-29T06:51:05;-1.60;94.80
13472;DHT22;6808;49.444;11.034;2023-01-29T06:53:32;-1.70;94.80
13472;DHT22;6808;49.444;11.034;2023-01-29T06:55:58;-1.70;95.10
13472;DHT22;6808;49.444;11.034;2023-01-29T06:58:24;-1.60;95.30
13472;DHT22;6808;49.444;11.034;2023-01-29T07:00:50;-1.60;95.10
13472;DHT22;6808;49.444;11.034;2023-01-29T07:03:15;-1.70;95.30
13472;DHT22;6808;49.444;11.034;2023-01-29T07:05:41;-1.70;95.50
13472;DHT22;6808;49.444;11.034;2023-01-29T07:08:07;-1.60;95.70
13472;DHT22;6808;49.444;11.034;2023-01-29T07:10:35;-0.90;96.20
13472;DHT22;6808;49.444;11.034;2023-01-29T07:13:00;-1.50;95.40
13472;DHT22;6808;49.444;11.034;2023-01-29T07:15:26;-1.50;95.00
13472;DHT22;6808;49.444;11.034;2023-01-29T07:17:59;-1.60;95.10
13472;DHT22;6808;49.444;11.034;2023-01-29T07:20:27;-1.60;95.30
13472;DHT22;6808;49.444;11.034;2023-01-29T07:22:53;-1.60;95.50
13472;DHT22;6808;49.444;11.034;2023-01-29T07:25:20;-1.60;95.60
13472;DHT22;6808;49.444;11.034;2023-01-29T07:27:45;-1.50;95.60
13472;DHT22;6808;49.444;11.034;2023-01-29T07:30:11;-1.60;95.20
13472;DHT22;6808;49.444;11.034;2023-01-29T07:32:37;-1.70;95.40
13472;DHT22;6808;49.444;11.034;2023-01-29T07:35:03;-1.70;95.40
13472;DHT22;6808;49.444;11.034;2023-01-29T07:37:28;-1.60;95.60
13472;DHT22;6808;49.444;11.034;2023-01-29T07:39:54;-1.70;95.50
13472;DHT22;6808;49.444;11.034;2023-01-29T07:42:19;-1.70;95.40
13472;DHT22;6808;49.444;11.034;2023-01-29T07:44:45;-1.60;95.50
13472;DHT22;6808;49.444;11.034;2023-01-29T07:47:10;-1.60;95.60
13472;DHT22;6808;49.444;11.034;2023-01-29T07:49:36;-1.50;95.50
13472;DHT22;6808;49.444;11.034;2023-01-29T07:52:01;-1.50;94.90
13472;DHT22;6808;49.444;11.034;2023-01-29T07:54:27;-1.50;95.10
13472;DHT22;6808;49.444;11.034;2023-01-29T07:56:52;-1.50;95.20
13472;DHT22;6808;49.444;11.034;2023-01-29T07:59:18;-1.60;95.00
13472;DHT22;6808;49.444;11.034;2023-01-29T08:01:43;-1.60;95.00
13472;DHT22;6808;49.444;11.034;2023-01-29T08:04:09;-1.60;94.80
13472;DHT22;6808;49.444;11.034;2023-01-29T08:06:34;-1.60;94.70
13472;DHT22;6808;49.444;11.034;2023-01-29T08:09:00;-1.60;95.00
13472;DHT22;6808;49.444;11.034;2023-01-29T08:11:26;-1.50;95.10
13472;DHT22;6808;49.444;11.034;2023-01-29T08:13:52;-1.50;95.50
13472;DHT22;6808;49.444;11.034;2023-01-29T08:16:18;-1.50;95.50
13472;DHT22;6808;49.444;11.034;2023-01-29T08:18:44;-1.40;95.40
13472;DHT22;6808;49.444;11.034;2023-01-29T08:21:12;-1.40;95.30
13472;DHT22;6808;49.444;11.034;2023-01-29T08:23:37;-1.50;95.10
13472;DHT22;6808;49.444;11.034;2023-01-29T08:26:03;-1.60;95.20
13472;DHT22;6808;49.444;11.034;2023-01-29T08:28:29;-1.60;95.30
13472;DHT22;6808;49.444;11.034;2023-01-29T08:30:55;-1.60;95.20
13472;DHT22;6808;49.444;11.034;2023-01-29T08:33:20;-1.60;95.30
13472;DHT22;6808;49.444;11.034;2023-01-29T08:35:49;-1.50;95.60
13472;DHT22;6808;49.444;11.034;2023-01-29T08:38:15;-1.50;95.10
13472;DHT22;6808;49.444;11.034;2023-01-29T08:40:42;-1.60;95.10
13472;DHT22;6808;49.444;11.034;2023-01-29T08:43:09;-1.70;94.90
13472;DHT22;6808;49.444;11.034;2023-01-29T08:45:37;-1.70;95.40
13472;DHT22;6808;49.444;11.034;2023-01-29T08:48:03;-1.60;95.80
13472;DHT22;6808;49.444;11.034;2023-01-29T08:50:33;-1.50;95.50
13472;DHT22;6808;49.444;11.034;2023-01-29T08:53:00;-1.50;95.50
13472;DHT22;6808;49.444;11.034;2023-01-29T08:55:27;-1.50;95.40
13472;DHT22;6808;49.444;11.034;2023-01-29T08:57:52;-1.40;95.60
13472;DHT22;6808;49.444;11.034;2023-01-29T09:00:18;-1.40;95.60
13472;DHT22;6808;49.444;11.034;2023-01-29T09:02:44;-1.40;95.70
13472;DHT22;6808;49.444;11.034;2023-01-29T09:05:10;-1.40;95.50
13472;DHT22;6808;49.444;11.034;2023-01-29T09:07:36;-1.40;95.70
13472;DHT22;6808;49.444;11.034;2023-01-29T09:10:04;-1.30;95.90
13472;DHT22;6808;49.444;11.034;2023-01-29T09:12:30;-1.20;95.60
13472;DHT22;6808;49.444;11.034;2023-01-29T09:14:56;-1.20;95.10
13472;DHT22;6808;49.444;11.034;2023-01-29T09:17:21;-1.20;95.10
13472;DHT22;6808;49.444;11.034;2023-01-29T09:19:47;-1.20;95.00
13472;DHT22;6808;49.444;11.034;2023-01-29T09:22:13;-1.20;95.10
13472;DHT22;6808;49.444;11.034;2023-01-29T09:24:38;-1.90;94.80
13472;DHT22;6808;49.444;11.034;2023-01-29T09:27:04;-1.20;95.20
13472;DHT22;6808;49.444;11.034;2023-01-29T09:29:30;-1.00;95.50
13472;DHT22;6808;49.444;11.034;2023-01-29T09:31:56;-1.10;95.20
13472;DHT22;6808;49.444;11.034;2023-01-29T09:34:21;-1.00;95.50
13472;DHT22;6808;49.444;11.034;2023-01-29T09:36:47;-1.00;95.10
13472;DHT22;6808;49.444;11.034;2023-01-29T09:39:12;-1.00;95.00
13472;DHT22;6808;49.444;11.034;2023-01-29T09:41:52;-1.00;95.10
13472;DHT22;6808;49.444;11.034;2023-01-29T09:44:46;-1.10;94.90
13472;DHT22;6808;49.444;11.034;2023-01-29T09:47:15;-1.20;94.90
13472;DHT22;6808;49.444;11.034;2023-01-29T09:49:48;-1.20;94.80
13472;DHT22;6808;49.444;11.034;2023-01-29T09:52:16;-1.20;95.20
13472;DHT22;6808;49.444;11.034;2023-01-29T09:57:47;-1.20;95.30
13472;DHT22;6808;49.444;11.034;2023-01-29T10:00:36;-1.20;94.90
13472;DHT22;6808;49.444;11.034;2023-01-29T10:11:20;-1.20;94.60
13472;DHT22;6808;49.444;11.034;2023-01-29T10:14:45;-1.20;94.70
13472;DHT22;6808;49.444;11.034;2023-01-29T10:17:24;-1.10;94.60
13472;DHT22;6808;49.444;11.034;2023-01-29T10:20:18;-1.20;94.40
13472;DHT22;6808;49.444;11.034;2023-01-29T10:25:27;-1.20;94.20
13472;DHT22;6808;49.444;11.034;2023-01-29T10:27:55;-1.00;94.70
13472;DHT22;6808;49.444;11.034;2023-01-29T10:30:30;-1.00;94.60
13472;DHT22;6808;49.444;11.034;2023-01-29T10:33:05;-0.80;95.10
13472;DHT22;6808;49.444;11.034;2023-01-29T10:35:41;-0.70;95.10
13472;DHT22;6808;49.444;11.034;2023-01-29T10:38:23;-0.70;94.40
13472;DHT22;6808;49.444;11.034;2023-01-29T10:41:11;-0.70;94.50
13472;DHT22;6808;49.444;11.034;2023-01-29T10:44:08;-0.70;94.60
13472;DHT22;6808;49.444;11.034;2023-01-29T10:58:36;-0.60;94.40
13472;DHT22;6808;49.444;11.034;2023-01-29T11:01:03;-0.50;94.00
13472;DHT22;6808;49.444;11.034;2023-01-29T11:03:32;-0.60;93.50
13472;DHT22;6808;49.444;11.034;2023-01-29T11:11:40;-0.60;93.70
13472;DHT22;6808;49.444;11.034;2023-01-29T11:14:36;-0.60;93.90
13472;DHT22;6808;49.444;11.034;2023-01-29T11:17:06;-0.50;93.80
13472;DHT22;6808;49.444;11.034;2023-01-29T11:19:41;-0.50;93.80
13472;DHT22;6808;49.444;11.034;2023-01-29T11:22:16;-0.60;93.00
13472;DHT22;6808;49.444;11.034;2023-01-29T11:24:42;-0.70;93.20
13472;DHT22;6808;49.444;11.034;2023-01-29T11:27:38;-0.50;93.90
13472;DHT22;6808;49.444;11.034;2023-01-29T11:30:24;-0.50;93.30
13472;DHT22;6808;49.444;11.034;2023-01-29T11:33:09;-0.50;93.40
13472;DHT22;6808;49.444;11.034;2023-01-29T11:35:36;-0.40;93.90
13472;DHT22;6808;49.444;11.034;2023-01-29T11:40:40;-0.40;93.10
13472;DHT22;6808;49.444;11.034;2023-01-29T11:43:18;-0.40;93.30
13472;DHT22;6808;49.444;11.034;2023-01-29T11:45:45;-0.50;93.00
13472;DHT22;6808;49.444;11.034;2023-01-29T11:48:20;-0.50;93.50
13472;DHT22;6808;49.444;11.034;2023-01-29T11:50:59;-0.40;93.80
13472;DHT22;6808;49.444;11.034;2023-01-29T11:53:39;-0.40;93.80
13472;DHT22;6808;49.444;11.034;2023-01-29T11:56:22;-0.30;93.70
13472;DHT22;6808;49.444;11.034;2023-01-29T11:58:49;-0.40;93.40
13472;DHT22;6808;49.444;11.034;2023-01-29T12:01:17;-0.30;94.00
13472;DHT22;6808;49.444;11.034;2023-01-29T12:03:51;-0.20;93.50
13472;DHT22;6808;49.444;11.034;2023-01-29T12:06:35;-0.20;93.70
13472;DHT22;6808;49.444;11.034;2023-01-29T12:09:08;-0.20;93.40
13472;DHT22;6808;49.444;11.034;2023-01-29T12:11:35;-0.10;93.70
13472;DHT22;6808;49.444;11.034;2023-01-29T12:14:03;-0.10;93.70
13472;DHT22;6808;49.444;11.034;2023-01-29T12:16:32;-0.10;93.70
13472;DHT22;6808;49.444;11.034;2023-01-29T12:19:10;-0.10;93.60
13472;DHT22;6808;49.444;11.034;2023-01-29T12:22:25;0.00;93.80
13472;DHT22;6808;49.444;11.034;2023-01-29T12:25:05;0.00;94.30
13472;DHT22;6808;49.444;11.034;2023-01-29T12:27:45;0.20;94.00
13472;DHT22;6808;49.444;11.034;2023-01-29T12:30:25;0.20;93.50
13472;DHT22;6808;49.444;11.034;2023-01-29T12:33:02;0.20;93.70
13472;DHT22;6808;49.444;11.034;2023-01-29T12:35:34;0.20;93.20
13472;DHT22;6808;49.444;11.034;2023-01-29T12:38:17;0.30;93.70
13472;DHT22;6808;49.444;11.034;2023-01-29T12:40:50;0.30;93.80
13472;DHT22;6808;49.444;11.034;2023-01-29T12:43:26;0.30;93.10
13472;DHT22;6808;49.444;11.034;2023-01-29T12:45:56;0.20;92.50
13472;DHT22;6808;49.444;11.034;2023-01-29T12:48:37;0.20;93.90
13472;DHT22;6808;49.444;11.034;2023-01-29T12:51:14;0.30;93.60
13472;DHT22;6808;49.444;11.034;2023-01-29T12:53:47;0.30;93.10
13472;DHT22;6808;49.444;11.034;2023-01-29T12:56:22;0.20;92.60
13472;DHT22;6808;49.444;11.034;2023-01-29T12:58:52;0.20;92.70
13472;DHT22;6808;49.444;11.034;2023-01-29T13:01:32;0.20;93.10
13472;DHT22;6808;49.444;11.034;2023-01-29T13:04:00;0.30;92.80
13472;DHT22;6808;49.444;11.034;2023-01-29T13:06:48;0.20;93.10
13472;DHT22;6808;49.444;11.034;2023-01-29T13:09:23;0.30;93.40
13472;DHT22;6808;49.444;11.034;2023-01-29T13:11:58;0.40;93.50
13472;DHT22;6808;49.444;11.034;2023-01-29T13:14:59;0.40;93.20
13472;DHT22;6808;49.444;11.034;2023-01-29T13:17:36;0.50;92.90
13472;DHT22;6808;49.444;11.034;2023-01-29T13:20:14;0.60;92.50
13472;DHT22;6808;49.444;11.034;2023-01-29T13:22:41;0.50;92.50
13472;DHT22;6808;49.444;11.034;2023-01-29T13:25:14;0.50;93.20
13472;DHT22;6808;49.444;11.034;2023-01-29T13:27:42;0.50;92.90
13472;DHT22;6808;49.444;11.034;2023-01-29T13:30:24;0.50;93.10
13472;DHT22;6808;49.444;11.034;2023-01-29T13:32:54;0.60;93.30
13472;DHT22;6808;49.444;11.034;2023-01-29T13:35:34;0.50;92.70
13472;DHT22;6808;49.444;11.034;2023-01-29T13:38:00;0.50;92.70
13472;DHT22;6808;49.444;11.034;2023-01-29T13:40:28;0.40;92.60
13472;DHT22;6808;49.444;11.034;2023-01-29T13:42:56;0.40;93.10
13472;DHT22;6808;49.444;11.034;2023-01-29T13:45:24;0.30;92.90
13472;DHT22;6808;49.444;11.034;2023-01-29T13:47:51;0.30;93.10
13472;DHT22;6808;49.444;11.034;2023-01-29T13:50:20;0.30;93.30
13472;DHT22;6808;49.444;11.034;2023-01-29T13:53:02;0.40;93.40
13472;DHT22;6808;49.444;11.034;2023-01-29T13:55:31;0.40;93.20
13472;DHT22;6808;49.444;11.034;2023-01-29T13:58:02;0.40;93.20
13472;DHT22;6808;49.444;11.034;2023-01-29T14:13:47;0.60;93.40
13472;DHT22;6808;49.444;11.034;2023-01-29T14:18:59;0.60;93.10
13472;DHT22;6808;49.444;11.034;2023-01-29T14:21:27;0.60;93.40
13472;DHT22;6808;49.444;11.034;2023-01-29T14:29:03;0.60;93.40
13472;DHT22;6808;49.444;11.034;2023-01-29T14:31:42;-0.30;93.00
13472;DHT22;6808;49.444;11.034;2023-01-29T14:34:30;0.50;93.20
13472;DHT22;6808;49.444;11.034;2023-01-29T14:39:51;0.50;94.00
13472;DHT22;6808;49.444;11.034;2023-01-29T14:42:30;0.40;93.90
13472;DHT22;6808;49.444;11.034;2023-01-29T14:45:32;0.40;93.90
13472;DHT22;6808;49.444;11.034;2023-01-29T14:53:14;0.70;93.80
13472;DHT22;6808;49.444;11.034;2023-01-29T14:55:42;0.70;94.10
13472;DHT22;6808;49.444;11.034;2023-01-29T14:58:18;0.70;94.60
13472;DHT22;6808;49.444;11.034;2023-01-29T15:00:50;1.50;95.10
13472;DHT22;6808;49.444;11.034;2023-01-29T15:07:00;0.60;94.20
13472;DHT22;6808;49.444;11.034;2023-01-29T15:10:10;0.60;94.30
13472;DHT22;6808;49.444;11.034;2023-01-29T15:15:34;0.50;94.30
13472;DHT22;6808;49.444;11.034;2023-01-29T15:18:12;0.50;94.60
13472;DHT22;6808;49.444;11.034;2023-01-29T15:20:40;0.50;94.60
13472;DHT22;6808;49.444;11.034;2023-01-29T15:23:30;0.50;94.50
13472;DHT22;6808;49.444;11.034;2023-01-29T15:25:59;0.50;94.70
13472;DHT22;6808;49.444;11.034;2023-01-29T15:28:28;0.50;94.60
13472;DHT22;6808;49.444;11.034;2023-01-29T15:30:56;0.50;94.50
13472;DHT22;6808;49.444;11.034;2023-01-29T15:33:23;0.50;94.70
13472;DHT22;6808;49.444;11.034;2023-01-29T15:35:56;0.40;94.50
13472;DHT22;6808;49.444;11.034;2023-01-29T15:38:23;0.40;94.90
13472;DHT22;6808;49.444;11.034;2023-01-29T15:40:59;0.30;94.90
13472;DHT22;6808;49.444;11.034;2023-01-29T15:43:34;0.30;95.00
13472;DHT22;6808;49.444;11.034;2023-01-29T15:46:03;0.40;95.30
13472;DHT22;6808;49.444;11.034;2023-01-29T15:48:43;0.40;95.30
13472;DHT22;6808;49.444;11.034;2023-01-29T15:51:17;0.40;95.20
13472;DHT22;6808;49.444;11.034;2023-01-29T15:53:48;0.40;95.30
13472;DHT22;6808;49.444;11.034;2023-01-29T15:56:18;0.30;95.50
13472;DHT22;6808;49.444;11.034;2023-01-29T15:58:47;0.20;95.80
13472;DHT22;6808;49.444;11.034;2023-01-29T16:01:13;0.20;96.00
13472;DHT22;6808;49.444;11.034;2023-01-29T16:03:40;0.20;96.30
13472;DHT22;6808;49.444;11.034;2023-01-29T16:06:06;0.20;96.20
13472;DHT22;6808;49.444;11.034;2023-01-29T16:08:33;0.20;96.20
13472;DHT22;6808;49.444;11.034;2023-01-29T16:11:02;0.10;96.10
13472;DHT22;6808;49.444;11.034;2023-01-29T16:13:31;0.40;96.60
13472;DHT22;6808;49.444;11.034;2023-01-29T16:16:24;0.10;96.30
13472;DHT22;6808;49.444;11.034;2023-01-29T16:18:50;0.10;96.40
13472;DHT22;6808;49.444;11.034;2023-01-29T16:21:20;0.10;96.40
13472;DHT22;6808;49.444;11.034;2023-01-29T16:23:57;0.00;96.30
13472;DHT22;6808;49.444;11.034;2023-01-29T16:26:30;-0.10;96.50
13472;DHT22;6808;49.444;11.034;2023-01-29T16:29:20;-0.10;96.70
13472;DHT22;6808;49.444;11.034;2023-01-29T16:31:49;-0.10;96.80
13472;DHT22;6808;49.444;11.034;2023-01-29T16:34:44;-0.20;96.90
13472;DHT22;6808;49.444;11.034;2023-01-29T16:37:26;-0.20;97.10
13472;DHT22;6808;49.444;11.034;2023-01-29T16:39:57;-0.30;97.10
13472;DHT22;6808;49.444;11.034;2023-01-29T16:42:27;-0.30;97.30
13472;DHT22;6808;49.444;11.034;2023-01-29T16:45:01;-0.30;97.50
13472;DHT22;6808;49.444;11.034;2023-01-29T16:47:34;-0.30;97.60
13472;DHT22;6808;49.444;11.034;2023-01-29T16:50:34;-0.40;97.60
13472;DHT22;6808;49.444;11.034;2023-01-29T16:53:20;-0.40;97.70
13472;DHT22;6808;49.444;11.034;2023-01-29T16:55:48;-0.40;97.80
13472;DHT22;6808;49.444;11.034;2023-01-29T16:58:17;-0.50;97.80
13472;DHT22;6808;49.444;11.034;2023-01-29T17:00:45;-0.50;97.90
13472;DHT22;6808;49.444;11.034;2023-01-29T17:03:13;-0.50;97.90
13472;DHT22;6808;49.444;11.034;2023-01-29T17:05:39;-0.50;98.00
13472;DHT22;6808;49.444;11.034;2023-01-29T17:08:06;-0.60;98.00
13472;DHT22;6808;49.444;11.034;2023-01-29T17:10:32;-0.60;98.10
13472;DHT22;6808;49.444;11.034;2023-01-29T17:13:13;-0.60;98.10
13472;DHT22;6808;49.444;11.034;2023-01-29T17:18:23;-0.70;98.20
13472;DHT22;6808;49.444;11.034;2023-01-29T17:20:50;-0.60;98.20
13472;DHT22;6808;49.444;11.034;2023-01-29T17:23:17;-0.70;98.20
13472;DHT22;6808;49.444;11.034;2023-01-29T17:25:44;-0.70;98.20
13472;DHT22;6808;49.444;11.034;2023-01-29T17:28:15;-0.70;98.30
13472;DHT22;6808;49.444;11.034;2023-01-29T17:30:42;-0.70;98.40
13472;DHT22;6808;49.444;11.034;2023-01-29T17:33:18;-0.70;98.50
13472;DHT22;6808;49.444;11.034;2023-01-29T17:35:48;-0.80;98.50
13472;DHT22;6808;49.444;11.034;2023-01-29T17:38:15;-0.80;98.80
13472;DHT22;6808;49.444;11.034;2023-01-29T17:40:48;-0.80;98.50
13472;DHT22;6808;49.444;11.034;2023-01-29T17:43:15;-0.80;98.60
13472;DHT22;6808;49.444;11.034;2023-01-29T17:45:41;-0.80;98.60
13472;DHT22;6808;49.444;11.034;2023-01-29T17:48:13;-0.80;98.70
13472;DHT22;6808;49.444;11.034;2023-01-29T17:50:42;-0.70;98.70